createdAt,value
2023-04-01T00:01:36.723Z,30.71
2023-04-01T00:04:07.227Z,30.72
2023-04-01T00:06:37.773Z,30.71
2023-04-01T00:09:08.073Z,30.75
2023-04-01T00:11:38.584Z,30.71
2023-04-01T00:14:09.299Z,30.73
2023-04-01T00:16:40.075Z,30.58
2023-04-01T00:19:10.642Z,30.72
2023-04-01T00:21:40.652Z,30.75
2023-04-01T00:24:10.767Z,30.74
2023-04-01T00:26:40.782Z,30.75
2023-04-01T00:29:10.951Z,30.75
2023-04-01T00:31:41.002Z,30.73
2023-04-01T00:34:11.432Z,30.72
2023-04-01T00:36:42.108Z,30.76
2023-04-01T00:39:12.520Z,30.77
2023-04-01T00:41:43.673Z,30.77
2023-04-01T00:44:27.463Z,30.78
2023-04-01T00:46:57.911Z,30.78
2023-04-01T00:49:54.264Z,30.79
2023-04-01T00:52:25.784Z,30.78
2023-04-01T00:54:58.950Z,30.79
2023-04-01T00:57:39.617Z,30.80
2023-04-01T01:00:15.183Z,30.82
2023-04-01T01:02:47.100Z,30.82
2023-04-01T01:05:18.619Z,30.82
2023-04-01T01:08:12.467Z,30.85
2023-04-01T01:10:44.563Z,30.85
2023-04-01T01:13:19.844Z,30.86
2023-04-01T01:15:59.781Z,30.86
2023-04-01T01:18:29.937Z,30.85
2023-04-01T01:21:23.146Z,30.89
2023-04-01T01:23:54.480Z,30.91
2023-04-01T01:26:40.155Z,30.91
2023-04-01T01:29:28.612Z,30.94
2023-04-01T01:31:58.665Z,30.96
2023-04-01T01:34:37.001Z,30.95
2023-04-01T01:37:17.331Z,30.98
2023-04-01T01:39:50.437Z,30.99
2023-04-01T01:42:23.272Z,30.99
2023-04-01T01:44:55.221Z,31.00
2023-04-01T01:47:27.737Z,31.02
2023-04-01T01:49:58.923Z,31.03
2023-04-01T01:52:30.804Z,31.05
2023-04-01T01:55:01.393Z,31.05
2023-04-01T01:57:42.990Z,31.07
2023-04-01T02:00:19.773Z,31.08
2023-04-01T02:02:51.411Z,31.09
2023-04-01T02:05:23.613Z,31.09
2023-04-01T02:08:29.440Z,31.11
2023-04-01T02:11:13.396Z,31.14
2023-04-01T02:13:57.134Z,31.14
2023-04-01T02:16:32.410Z,31.15
2023-04-01T02:19:04.072Z,31.16
2023-04-01T02:21:35.123Z,31.20
2023-04-01T02:24:08.315Z,30.96
2023-04-01T02:26:38.871Z,31.20
2023-04-01T02:29:11.315Z,31.22
2023-04-01T02:31:42.479Z,31.24
2023-04-01T02:34:13.220Z,31.26
2023-04-01T02:36:43.808Z,31.27
2023-04-01T02:39:14.002Z,31.27
2023-04-01T02:41:44.921Z,31.28
2023-04-01T02:44:16.886Z,31.29
2023-04-01T02:46:47.585Z,31.31
2023-04-01T02:49:18.071Z,31.35
2023-04-01T02:51:49.299Z,31.36
2023-04-01T02:54:19.294Z,31.37
2023-04-01T02:56:49.865Z,31.37
2023-04-01T02:59:20.227Z,31.41
2023-04-01T03:01:50.547Z,31.43
2023-04-01T03:04:20.608Z,31.44
2023-04-01T03:06:50.632Z,31.45
2023-04-01T03:09:20.831Z,31.47
2023-04-01T03:11:51.101Z,31.48
2023-04-01T03:14:21.942Z,31.51
2023-04-01T03:16:52.124Z,31.52
2023-04-01T03:19:23.802Z,31.53
2023-04-01T03:21:53.848Z,31.55
2023-04-01T03:24:24.141Z,31.54
2023-04-01T03:26:54.696Z,31.54
2023-04-01T03:29:24.879Z,31.55
2023-04-01T03:31:55.198Z,31.54
2023-04-01T03:34:25.306Z,31.58
2023-04-01T03:36:55.858Z,31.61
2023-04-01T03:39:26.108Z,31.63
2023-04-01T03:41:56.353Z,31.65
2023-04-01T03:44:27.467Z,31.66
2023-04-01T03:46:58.784Z,31.69
2023-04-01T03:49:28.918Z,31.72
2023-04-01T03:51:59.123Z,31.74
2023-04-01T03:54:29.509Z,31.74
2023-04-01T03:57:00.517Z,31.76
2023-04-01T03:59:31.246Z,31.75
2023-04-01T04:02:01.688Z,31.75
2023-04-01T04:04:34.571Z,31.58
2023-04-01T04:07:05.280Z,31.78
2023-04-01T04:09:51.780Z,31.81
2023-04-01T04:12:22.001Z,31.82
2023-04-01T04:14:52.343Z,31.84
2023-04-01T04:17:22.589Z,31.84
2023-04-01T04:19:53.301Z,31.85
2023-04-01T04:22:24.272Z,31.86
2023-04-01T04:24:54.382Z,31.87
2023-04-01T04:27:24.800Z,31.90
2023-04-01T04:30:06.496Z,31.93
2023-04-01T04:32:37.565Z,31.93
2023-04-01T04:35:09.210Z,31.93
2023-04-01T04:37:39.911Z,31.97
2023-04-01T04:40:10.964Z,31.97
2023-04-01T04:42:41.709Z,31.99
2023-04-01T04:45:15.991Z,31.99
2023-04-01T04:47:55.002Z,32.00
2023-04-01T04:50:25.973Z,32.02
2023-04-01T04:52:56.842Z,32.00
2023-04-01T04:55:27.187Z,32.03
2023-04-01T04:58:18.223Z,32.04
2023-04-01T05:00:49.674Z,32.07
2023-04-01T05:03:29.056Z,32.08
2023-04-01T05:05:59.581Z,32.14
2023-04-01T05:08:30.156Z,32.13
2023-04-01T05:11:01.082Z,32.19
2023-04-01T05:13:32.628Z,32.22
2023-04-01T05:16:03.095Z,32.23
2023-04-01T05:18:33.121Z,32.08
2023-04-01T05:21:03.229Z,31.84
2023-04-01T05:23:34.581Z,31.68
2023-04-01T05:26:09.010Z,31.53
2023-04-01T05:28:39.150Z,31.34
2023-04-01T05:31:10.262Z,31.28
2023-04-01T05:33:46.632Z,31.18
2023-04-01T05:36:17.804Z,31.06
2023-04-01T05:38:51.437Z,30.98
2023-04-01T05:41:23.061Z,30.90
2023-04-01T05:43:53.504Z,30.84
2023-04-01T05:46:42.662Z,30.76
2023-04-01T05:49:21.436Z,30.66
2023-04-01T05:51:53.765Z,30.64
2023-04-01T05:54:24.201Z,30.58
2023-04-01T05:56:54.433Z,30.36
2023-04-01T05:59:24.920Z,30.52
2023-04-01T06:01:55.526Z,30.52
2023-04-01T06:04:26.063Z,30.47
2023-04-01T06:06:56.231Z,30.43
2023-04-01T06:09:31.510Z,30.35
2023-04-01T06:12:11.556Z,30.34
2023-04-01T06:14:52.299Z,30.32
2023-04-01T06:17:28.624Z,30.33
2023-04-01T06:20:02.146Z,30.32
2023-04-01T06:22:40.898Z,30.28
2023-04-01T06:25:11.050Z,30.28
2023-04-01T06:27:59.704Z,30.26
2023-04-01T06:30:36.223Z,30.29
2023-04-01T06:33:13.699Z,30.25
2023-04-01T06:35:53.375Z,30.26
2023-04-01T06:38:23.668Z,30.26
2023-04-01T06:41:18.489Z,30.27
2023-04-01T06:44:02.407Z,30.26
2023-04-01T06:47:01.868Z,30.24
2023-04-01T06:50:23.250Z,30.27
2023-04-01T06:53:13.641Z,30.27
2023-04-01T06:56:22.253Z,29.84
2023-04-01T06:59:02.876Z,30.27
2023-04-01T07:01:37.940Z,30.23
2023-04-01T07:04:12.590Z,30.26
2023-04-01T07:06:49.151Z,30.28
2023-04-01T07:09:25.194Z,30.26
2023-04-01T07:12:22.197Z,30.26
2023-04-01T07:15:31.722Z,30.30
2023-04-01T07:18:08.526Z,30.30
2023-04-01T07:20:40.836Z,30.32
2023-04-01T07:23:32.396Z,30.36
2023-04-01T07:26:24.638Z,30.33
2023-04-01T07:29:20.640Z,30.36
2023-04-01T07:32:07.669Z,30.36
2023-04-01T07:34:55.969Z,30.38
2023-04-01T07:37:49.111Z,30.41
2023-04-01T07:40:37.545Z,30.38
2023-04-01T07:43:07.972Z,30.39
2023-04-01T07:45:44.610Z,30.42
2023-04-01T07:48:19.136Z,30.65
2023-04-01T07:50:53.217Z,30.90
2023-04-01T07:53:29.954Z,31.26
2023-04-01T07:56:11.576Z,31.55
2023-04-01T07:58:45.488Z,31.80
2023-04-01T08:01:55.242Z,32.00
2023-04-01T08:04:44.877Z,32.24
2023-04-01T08:07:20.838Z,32.42
2023-04-01T08:10:08.221Z,32.58
2023-04-01T08:13:17.542Z,32.73
2023-04-01T08:16:10.542Z,32.87
2023-04-01T08:19:08.156Z,32.99
2023-04-01T08:21:50.778Z,33.09
2023-04-01T08:24:31.743Z,33.19
2023-04-01T08:27:12.720Z,33.30
2023-04-01T08:29:47.382Z,33.37
2023-04-01T08:32:26.774Z,33.48
2023-04-01T08:35:19.798Z,33.55
2023-04-01T08:37:53.465Z,33.64
2023-04-01T08:40:33.454Z,33.71
2023-04-01T08:43:06.830Z,33.77
2023-04-01T08:45:58.075Z,33.83
2023-04-01T08:48:40.363Z,33.88
2023-04-01T08:51:18.416Z,33.93
2023-04-01T08:54:05.492Z,33.99
2023-04-01T08:56:54.389Z,34.01
2023-04-01T08:59:24.536Z,34.07
2023-04-01T09:01:57.993Z,34.10
2023-04-01T09:05:01.698Z,34.14
2023-04-01T09:07:55.498Z,34.18
2023-04-01T09:10:28.289Z,34.23
2023-04-01T09:13:32.958Z,34.27
2023-04-01T09:16:21.974Z,34.32
2023-04-01T09:19:12.064Z,34.35
2023-04-01T09:22:09.359Z,34.36
2023-04-01T09:24:59.413Z,34.40
2023-04-01T09:27:37.484Z,34.42
2023-04-01T09:30:11.320Z,34.44
2023-04-01T09:33:00.014Z,34.49
2023-04-01T09:35:34.850Z,34.51
2023-04-01T09:38:08.382Z,34.34
2023-04-01T09:40:57.765Z,34.13
2023-04-01T09:43:48.396Z,33.93
2023-04-01T09:46:21.864Z,33.78
2023-04-01T09:48:58.404Z,33.73
2023-04-01T09:51:54.203Z,33.67
2023-04-01T09:54:28.003Z,33.57
2023-04-01T09:57:19.447Z,33.45
2023-04-01T10:00:09.678Z,33.37
2023-04-01T10:03:00.748Z,33.34
2023-04-01T10:05:38.884Z,33.53
2023-04-01T10:08:16.086Z,33.68
2023-04-01T10:10:59.176Z,33.81
2023-04-01T10:13:32.859Z,33.89
2023-04-01T10:16:06.548Z,33.96
2023-04-01T10:18:52.681Z,34.00
2023-04-01T10:21:28.508Z,34.02
2023-04-01T10:24:11.258Z,34.03
2023-04-01T10:26:53.158Z,34.06
2023-04-01T10:30:01.389Z,34.07
2023-04-01T10:32:34.739Z,34.07
2023-04-01T10:35:05.558Z,33.89
2023-04-01T10:37:54.528Z,33.67
2023-04-01T10:40:38.094Z,33.55
2023-04-01T10:43:49.239Z,33.42
2023-04-01T10:46:38.448Z,33.31
2023-04-01T10:49:34.177Z,33.26
2023-04-01T10:52:24.763Z,33.20
2023-04-01T10:55:38.608Z,33.13
2023-04-01T10:58:41.571Z,33.12
2023-04-01T11:02:11.383Z,33.06
2023-04-01T11:05:20.190Z,32.98
2023-04-01T11:08:12.352Z,32.89
2023-04-01T11:10:46.908Z,32.85
2023-04-01T11:13:46.326Z,32.78
2023-04-01T11:16:30.167Z,32.74
2023-04-01T11:19:10.048Z,32.68
2023-04-01T11:21:43.429Z,32.63
2023-04-01T11:24:20.313Z,32.58
2023-04-01T11:27:32.440Z,32.53
2023-04-01T11:30:22.967Z,32.49
2023-04-01T11:33:25.713Z,32.47
2023-04-01T11:36:05.342Z,32.41
2023-04-01T11:38:38.865Z,32.35
2023-04-01T11:41:39.564Z,32.35
2023-04-01T11:44:37.859Z,32.32
2023-04-01T11:47:35.224Z,32.28
2023-04-01T11:50:14.315Z,32.21
2023-04-01T11:53:10.156Z,32.15
2023-04-01T11:55:47.380Z,32.01
2023-04-01T11:58:19.880Z,31.99
2023-04-01T12:01:07.381Z,31.89
2023-04-01T12:03:40.421Z,31.84
2023-04-01T12:06:36.202Z,31.88
2023-04-01T12:09:33.100Z,31.91
2023-04-01T12:12:03.543Z,31.92
2023-04-01T12:14:36.789Z,31.88
2023-04-01T12:17:13.205Z,31.81
2023-04-01T12:19:43.761Z,31.76
2023-04-01T12:22:33.740Z,31.70
2023-04-01T12:25:24.615Z,31.64
2023-04-01T12:28:09.369Z,31.57
2023-04-01T12:30:54.356Z,31.55
2023-04-01T12:33:44.114Z,31.52
2023-04-01T12:36:21.233Z,31.51
2023-04-01T12:39:03.140Z,31.55
2023-04-01T12:41:41.131Z,31.61
2023-04-01T12:44:22.401Z,31.53
2023-04-01T12:47:11.198Z,31.55
2023-04-01T12:49:50.661Z,31.40
2023-04-01T12:52:38.807Z,31.28
2023-04-01T12:55:27.930Z,31.12
2023-04-01T12:58:10.378Z,31.02
2023-04-01T13:00:45.031Z,30.90
2023-04-01T13:03:21.869Z,30.81
2023-04-01T13:06:18.022Z,30.75
2023-04-01T13:09:10.202Z,30.69
2023-04-01T13:11:57.467Z,30.61
2023-04-01T13:14:47.798Z,30.60
2023-04-01T13:17:30.508Z,30.55
2023-04-01T13:20:05.628Z,30.55
2023-04-01T13:22:48.787Z,30.52
2023-04-01T13:25:42.223Z,30.47
2023-04-01T13:28:17.643Z,30.42
2023-04-01T13:30:51.358Z,30.42
2023-04-01T13:33:41.531Z,30.36
2023-04-01T13:36:22.995Z,30.36
2023-04-01T13:39:11.284Z,30.32
2023-04-01T13:41:41.906Z,30.26
2023-04-01T13:44:12.758Z,30.23
2023-04-01T13:46:58.495Z,30.22
2023-04-01T13:49:38.102Z,30.20
2023-04-01T13:52:29.036Z,30.12
2023-04-01T13:55:03.864Z,30.08
2023-04-01T13:57:37.487Z,30.12
2023-04-01T14:00:08.052Z,30.09
2023-04-01T14:03:01.155Z,30.03
2023-04-01T14:05:44.187Z,29.93
2023-04-01T14:08:30.092Z,29.89
2023-04-01T14:11:07.068Z,29.77
2023-04-01T14:13:44.060Z,29.71
2023-04-01T14:16:26.824Z,29.68
2023-04-01T14:19:28.515Z,29.62
2023-04-01T14:22:05.116Z,29.59
2023-04-01T14:24:36.050Z,29.53
2023-04-01T14:27:27.540Z,29.49
2023-04-01T14:30:00.949Z,29.45
2023-04-01T14:32:50.257Z,29.40
2023-04-01T14:35:39.047Z,29.35
2023-04-01T14:38:20.237Z,29.32
2023-04-01T14:41:00.665Z,29.28
2023-04-01T14:43:42.569Z,29.25
2023-04-01T14:46:31.606Z,29.22
2023-04-01T14:49:24.028Z,29.17
2023-04-01T14:52:03.258Z,29.15
2023-04-01T14:54:33.714Z,29.13
2023-04-01T14:57:27.043Z,29.13
2023-04-01T15:00:07.336Z,29.07
2023-04-01T15:02:44.108Z,29.04
2023-04-01T15:05:36.160Z,28.98
2023-04-01T15:08:22.254Z,28.98
2023-04-01T15:11:02.622Z,28.95
2023-04-01T15:13:33.089Z,28.92
2023-04-01T15:16:09.304Z,28.89
2023-04-01T15:18:50.047Z,28.86
2023-04-01T15:21:20.604Z,28.82
2023-04-01T15:23:51.470Z,28.78
2023-04-01T15:26:22.602Z,28.80
2023-04-01T15:28:58.749Z,28.72
2023-04-01T15:31:50.621Z,28.72
2023-04-01T15:34:23.970Z,28.68
2023-04-01T15:37:00.942Z,28.63
2023-04-01T15:39:52.498Z,28.61
2023-04-01T15:42:31.470Z,28.61
2023-04-01T15:45:02.360Z,28.58
2023-04-01T15:47:35.331Z,28.56
2023-04-01T15:50:26.513Z,28.54
2023-04-01T15:53:19.729Z,28.50
2023-04-01T15:56:11.241Z,28.47
2023-04-01T15:58:49.236Z,28.46
2023-04-01T16:01:29.099Z,28.41
2023-04-01T16:04:18.670Z,28.38
2023-04-01T16:07:13.990Z,28.36
2023-04-01T16:10:03.236Z,28.33
2023-04-01T16:12:46.033Z,28.29
2023-04-01T16:15:41.395Z,28.29
2023-04-01T16:18:14.883Z,28.27
2023-04-01T16:20:54.616Z,28.26
2023-04-01T16:23:34.964Z,28.20
2023-04-01T16:26:43.784Z,28.21
2023-04-01T16:29:13.862Z,28.14
2023-04-01T16:31:58.786Z,28.13
2023-04-01T16:34:28.994Z,28.14
2023-04-01T16:37:15.250Z,28.11
2023-04-01T16:39:46.149Z,28.09
2023-04-01T16:42:18.901Z,28.06
2023-04-01T16:44:56.484Z,28.03
2023-04-01T16:47:33.754Z,28.01
2023-04-01T16:50:22.109Z,28.03
2023-04-01T16:53:05.337Z,28.00
2023-04-01T16:56:05.073Z,28.02
2023-04-01T16:58:39.623Z,27.98
2023-04-01T17:01:30.119Z,27.97
2023-04-01T17:04:03.177Z,27.98
2023-04-01T17:06:46.760Z,27.94
2023-04-01T17:09:35.230Z,27.96
2023-04-01T17:12:37.344Z,27.91
2023-04-01T17:15:11.538Z,27.93
2023-04-01T17:17:48.644Z,27.92
2023-04-01T17:20:40.207Z,27.89
2023-04-01T17:23:20.149Z,27.86
2023-04-01T17:26:11.123Z,27.86
2023-04-01T17:29:17.393Z,27.82
2023-04-01T17:31:49.282Z,27.82
2023-04-01T17:34:37.933Z,27.79
2023-04-01T17:37:34.195Z,27.79
2023-04-01T17:40:29.427Z,27.79
2023-04-01T17:43:17.745Z,27.74
2023-04-01T17:46:04.312Z,27.73
2023-04-01T17:48:45.312Z,27.74
2023-04-01T17:51:18.867Z,27.71
2023-04-01T17:54:03.553Z,27.75
2023-04-01T17:56:36.958Z,27.87
2023-04-01T17:59:19.745Z,27.93
2023-04-01T18:02:08.912Z,27.97
2023-04-01T18:04:42.405Z,27.93
2023-04-01T18:07:31.327Z,27.90
2023-04-01T18:10:10.965Z,27.94
2023-04-01T18:13:00.096Z,27.94
2023-04-01T18:15:36.572Z,27.97
2023-04-01T18:18:07.346Z,27.96
2023-04-01T18:20:46.299Z,27.99
2023-04-01T18:23:44.605Z,27.99
2023-04-01T18:26:23.640Z,27.99
2023-04-01T18:29:14.307Z,28.03
2023-04-01T18:31:47.507Z,28.02
2023-04-01T18:34:18.040Z,28.02
2023-04-01T18:36:49.035Z,28.02
2023-04-01T18:39:27.375Z,27.99
2023-04-01T18:41:57.742Z,27.98
2023-04-01T18:44:28.076Z,27.99
2023-04-01T18:47:15.275Z,27.98
2023-04-01T18:50:03.809Z,27.98
2023-04-01T18:52:37.111Z,27.96
2023-04-01T18:55:07.458Z,27.92
2023-04-01T18:57:58.950Z,27.93
2023-04-01T19:00:35.511Z,27.90
2023-04-01T19:03:06.133Z,27.91
2023-04-01T19:05:40.497Z,27.95
2023-04-01T19:08:20.764Z,27.94
2023-04-01T19:10:50.846Z,27.94
2023-04-01T19:13:41.058Z,27.92
2023-04-01T19:16:14.044Z,27.92
2023-04-01T19:18:55.068Z,27.87
2023-04-01T19:21:31.389Z,27.87
2023-04-01T19:24:19.873Z,27.87
2023-04-01T19:26:55.865Z,27.87
2023-04-01T19:29:34.902Z,27.86
2023-04-01T19:32:04.968Z,27.85
2023-04-01T19:34:41.022Z,27.84
2023-04-01T19:37:14.230Z,27.85
2023-04-01T19:39:50.348Z,27.83
2023-04-01T19:42:27.081Z,27.82
2023-04-01T19:44:57.225Z,27.81
2023-04-01T19:47:48.546Z,27.81
2023-04-01T19:50:19.207Z,27.82
2023-04-01T19:52:50.944Z,27.80
2023-04-01T19:55:30.389Z,27.81
2023-04-01T19:58:05.442Z,27.79
2023-04-01T20:01:06.314Z,27.77
2023-04-01T20:03:55.362Z,27.75
2023-04-01T20:06:25.572Z,27.76
2023-04-01T20:09:11.113Z,27.74
2023-04-01T20:11:49.220Z,27.71
2023-04-01T20:14:31.901Z,27.74
2023-04-01T20:17:20.224Z,27.73
2023-04-01T20:20:04.108Z,27.73
2023-04-01T20:22:57.000Z,27.70
2023-04-01T20:25:30.062Z,27.67
2023-04-01T20:28:19.336Z,27.63
2023-04-01T20:31:14.223Z,27.61
2023-04-01T20:33:50.024Z,27.61
2023-04-01T20:36:20.121Z,27.60
2023-04-01T20:39:08.663Z,27.55
2023-04-01T20:41:47.025Z,27.53
2023-04-01T20:44:21.743Z,27.37
2023-04-01T20:46:58.503Z,27.54
2023-04-01T20:49:57.882Z,27.54
2023-04-01T20:52:32.384Z,27.50
2023-04-01T20:55:21.248Z,27.50
2023-04-01T20:57:54.250Z,27.27
2023-04-01T21:00:34.612Z,27.48
2023-04-01T21:03:18.913Z,27.48
2023-04-01T21:05:55.169Z,27.48
2023-04-01T21:08:38.927Z,27.45
2023-04-01T21:11:28.503Z,27.46
2023-04-01T21:14:17.327Z,27.45
2023-04-01T21:16:48.030Z,27.44
2023-04-01T21:19:33.381Z,27.45
2023-04-01T21:22:03.550Z,27.44
2023-04-01T21:24:52.254Z,27.42
2023-04-01T21:27:34.272Z,27.40
2023-04-01T21:30:10.555Z,27.40
2023-04-01T21:32:47.184Z,27.41
2023-04-01T21:35:26.798Z,27.39
2023-04-01T21:38:21.399Z,27.36
2023-04-01T21:41:04.255Z,27.35
2023-04-01T21:43:46.158Z,27.35
2023-04-01T21:46:25.548Z,27.31
2023-04-01T21:49:07.825Z,27.31
2023-04-01T21:52:08.906Z,27.27
2023-04-01T21:54:57.561Z,27.25
2023-04-01T21:57:46.390Z,27.24
2023-04-01T22:00:21.271Z,27.22
2023-04-01T22:03:23.937Z,27.23
2023-04-01T22:06:00.109Z,27.20
2023-04-01T22:08:48.813Z,27.19
2023-04-01T22:11:19.377Z,27.25
2023-04-01T22:13:55.566Z,27.27
2023-04-01T22:16:36.669Z,27.25
2023-04-01T22:19:25.601Z,27.24
2023-04-01T22:22:10.963Z,27.23
2023-04-01T22:24:43.700Z,27.20
2023-04-01T22:27:13.744Z,27.22
2023-04-01T22:30:09.510Z,27.21
2023-04-01T22:32:40.064Z,27.20
2023-04-01T22:35:36.552Z,27.21
2023-04-01T22:38:13.156Z,27.21
2023-04-01T22:40:43.198Z,27.20
2023-04-01T22:43:15.658Z,27.20
2023-04-01T22:46:00.935Z,27.19
2023-04-01T22:48:44.283Z,27.23
2023-04-01T22:51:14.726Z,27.31
2023-04-01T22:54:03.418Z,27.39
2023-04-01T22:56:39.659Z,27.49
2023-04-01T22:59:25.419Z,27.57
2023-04-01T23:02:09.648Z,27.69
2023-04-01T23:04:43.914Z,27.80
2023-04-01T23:07:32.970Z,27.85
2023-04-01T23:10:05.129Z,27.92
2023-04-01T23:12:36.077Z,27.99
2023-04-01T23:15:06.732Z,28.03
2023-04-01T23:17:48.965Z,28.11
2023-04-01T23:20:19.451Z,28.17
2023-04-01T23:23:08.810Z,28.22
2023-04-01T23:25:44.487Z,28.28
2023-04-01T23:28:18.125Z,28.34
2023-04-01T23:30:48.235Z,28.39
2023-04-01T23:33:21.256Z,28.44
2023-04-01T23:36:11.932Z,28.50
2023-04-01T23:38:49.659Z,28.56
2023-04-01T23:41:22.848Z,28.63
2023-04-01T23:44:11.932Z,28.65
2023-04-01T23:46:43.283Z,28.69
2023-04-01T23:49:28.266Z,28.75
2023-04-01T23:52:02.405Z,28.78
2023-04-01T23:54:36.651Z,28.81
2023-04-01T23:57:14.204Z,28.86
2023-04-01T23:59:44.658Z,28.90
